Time;durP1;ratioP1;P1;durP2;ratioP2;P2;SDS_P1;SDS_P2;PMS_P1;PMS_P2;Temp;Humidity;BMP_temperature;BMP_pressure;BME280_temperature;BME280_humidity;BME280_pressure;Samples;Min_cycle;Max_cycle;Signal;HPM_P1;HPM_P2
2023/12/04 00:01:06;;;;;;;17.33;9.73;;;0.00;99.90;;;;;;4920661;28;20299;-64
2023/12/04 00:03:33;;;;;;;17.90;8.97;;;0.10;99.90;;;;;;4931941;28;20300;-64
2023/12/04 00:06:00;;;;;;;17.50;9.27;;;0.10;99.90;;;;;;4905505;28;20217;-64
2023/12/04 00:08:27;;;;;;;20.80;9.40;;;0.10;99.90;;;;;;4939577;28;20203;-64
2023/12/04 00:10:54;;;;;;;20.50;10.73;;;0.20;99.90;;;;;;4932123;28;20201;-64
2023/12/04 00:13:21;;;;;;;16.77;8.97;;;0.10;99.90;;;;;;4941774;28;20202;-64
2023/12/04 00:15:48;;;;;;;16.20;9.53;;;0.20;99.90;;;;;;4934003;28;20306;-64
2023/12/04 00:18:16;;;;;;;16.77;9.00;;;0.20;99.90;;;;;;4941316;28;21183;-64
2023/12/04 00:20:43;;;;;;;17.53;9.57;;;0.00;99.90;;;;;;4910951;28;20204;-64
2023/12/04 00:23:10;;;;;;;17.37;9.43;;;0.20;99.90;;;;;;4945862;28;20205;-64
2023/12/04 00:25:37;;;;;;;13.13;8.70;;;0.10;99.90;;;;;;4932950;28;20577;-64
2023/12/04 00:28:04;;;;;;;15.93;9.23;;;0.20;99.90;;;;;;4940246;28;20256;-64
2023/12/04 00:30:31;;;;;;;19.07;9.23;;;0.20;99.90;;;;;;4940678;28;20696;-64
2023/12/04 00:32:58;;;;;;;21.17;10.03;;;0.10;99.90;;;;;;4934068;28;20217;-65
2023/12/04 00:35:26;;;;;;;17.00;8.97;;;0.10;99.90;;;;;;4898317;28;20414;-65
2023/12/04 00:37:53;;;;;;;17.97;9.60;;;0.20;99.90;;;;;;4941405;28;20231;-64
2023/12/04 00:40:20;;;;;;;18.03;10.07;;;;;;;;;;4930872;28;20695;-64
2023/12/04 00:42:47;;;;;;;18.43;10.93;;;;;;;;;;4934010;28;20679;-64
2023/12/04 00:45:14;;;;;;;18.70;9.70;;;0.10;99.90;;;;;;4940112;28;20196;-64
2023/12/04 00:47:41;;;;;;;18.07;9.57;;;0.10;99.90;;;;;;4930404;28;20209;-64
2023/12/04 00:50:08;;;;;;;13.77;8.97;;;0.20;99.90;;;;;;4922613;28;20205;-64
2023/12/04 00:52:37;;;;;;;16.90;9.93;;;0.10;99.90;;;;;;4920517;28;20218;-64
2023/12/04 00:55:04;;;;;;;18.77;9.83;;;0.20;99.90;;;;;;4936867;28;20217;-64
2023/12/04 00:57:31;;;;;;;18.90;9.63;;;0.10;99.90;;;;;;4928881;28;20343;-64
2023/12/04 00:59:57;;;;;;;13.77;8.87;;;-0.90;99.90;;;;;;4943248;28;20211;-64
2023/12/04 01:02:25;;;;;;;20.33;9.50;;;1.20;99.90;;;;;;4914795;28;20211;-64
2023/12/04 01:04:52;;;;;;;19.27;9.50;;;0.10;99.90;;;;;;4945313;28;20199;-64
2023/12/04 01:07:18;;;;;;;17.10;9.30;;;0.10;99.90;;;;;;4906503;28;20226;-64
2023/12/04 01:09:47;;;;;;;17.67;9.33;;;0.10;99.90;;;;;;4944489;28;20304;-64
2023/12/04 01:12:14;;;;;;;16.70;9.30;;;0.10;99.90;;;;;;4934558;28;20208;-64
2023/12/04 01:14:41;;;;;;;17.47;9.17;;;0.20;99.90;;;;;;4941983;28;20198;-65
2023/12/04 01:17:08;;;;;;;18.17;8.33;;;0.10;99.90;;;;;;4939661;28;20285;-64
2023/12/04 01:19:35;;;;;;;17.57;9.27;;;0.10;99.90;;;;;;4932676;28;20334;-64
2023/12/04 01:22:01;;;;;;;16.90;9.40;;;0.60;99.90;;;;;;4906701;28;20545;-64
2023/12/04 01:24:28;;;;;;;16.57;9.13;;;0.20;99.90;;;;;;4944278;28;20659;-64
2023/12/04 01:26:57;;;;;;;18.40;8.87;;;0.10;99.90;;;;;;4932719;28;20944;-64
2023/12/04 01:29:23;;;;;;;16.70;8.60;;;0.10;99.90;;;;;;4945153;28;20202;-64
2023/12/04 01:31:50;;;;;;;16.60;10.23;;;0.20;99.90;;;;;;4941568;28;20420;-64
2023/12/04 01:34:17;;;;;;;20.90;9.53;;;0.20;99.90;;;;;;4939849;28;20213;-64
2023/12/04 01:36:44;;;;;;;15.67;9.37;;;0.40;99.90;;;;;;4911358;28;20611;-64
2023/12/04 01:39:11;;;;;;;17.63;9.93;;;0.20;99.90;;;;;;4945769;28;20225;-64
2023/12/04 01:41:38;;;;;;;17.17;8.93;;;0.20;99.90;;;;;;4932924;28;20314;-64
2023/12/04 01:44:06;;;;;;;16.67;9.43;;;-0.70;99.90;;;;;;4946680;28;20301;-64
2023/12/04 01:46:33;;;;;;;20.07;9.83;;;0.20;99.90;;;;;;4944725;28;20203;-64
2023/12/04 01:49:02;;;;;;;18.17;9.50;;;0.20;99.90;;;;;;4932635;28;20215;-64
2023/12/04 01:51:30;;;;;;;18.30;9.50;;;0.10;99.90;;;;;;4943554;28;20340;-64
2023/12/04 01:53:59;;;;;;;15.83;9.17;;;0.20;99.90;;;;;;4903832;28;20213;-64
2023/12/04 01:56:26;;;;;;;17.77;10.07;;;0.20;99.90;;;;;;4947117;28;20332;-64
2023/12/04 01:58:53;;;;;;;14.80;8.43;;;1.50;99.90;;;;;;4926457;28;20742;-64
2023/12/04 02:01:23;;;;;;;16.40;9.13;;;0.20;99.90;;;;;;4945729;28;20206;-64
2023/12/04 02:03:50;;;;;;;21.60;10.50;;;;;;;;;;4929826;28;20968;-64
2023/12/04 02:06:19;;;;;;;15.33;8.97;;;0.20;99.90;;;;;;4944866;28;20567;-64
2023/12/04 02:08:48;;;;;;;15.37;9.13;;;0.20;99.90;;;;;;4903552;28;21146;-64
2023/12/04 02:11:15;;;;;;;16.80;9.30;;;0.10;99.90;;;;;;4942057;28;20256;-64
2023/12/04 02:13:42;;;;;;;19.20;8.67;;;0.20;99.90;;;;;;4932675;28;20773;-64
2023/12/04 02:16:11;;;;;;;18.87;9.07;;;0.20;99.90;;;;;;4943566;28;20213;-64
2023/12/04 02:18:39;;;;;;;18.00;9.50;;;0.20;99.90;;;;;;4944625;28;20230;-64
2023/12/04 02:21:07;;;;;;;18.77;10.03;;;0.20;99.90;;;;;;4932716;28;20238;-64
2023/12/04 02:23:34;;;;;;;19.07;9.33;;;0.20;99.90;;;;;;4943114;28;20206;-64
2023/12/04 02:26:11;;;;;;;23.57;9.97;;;0.80;99.90;;;;;;4902251;28;20631;-64
2023/12/04 02:28:39;;;;;;;14.17;8.53;;;0.20;99.90;;;;;;4938196;28;20411;-64
2023/12/04 02:31:07;;;;;;;16.13;9.23;;;0.90;99.90;;;;;;4942480;28;20970;-64
2023/12/04 02:33:36;;;;;;;17.20;9.00;;;0.20;99.90;;;;;;4951301;28;20197;-64
2023/12/04 02:36:06;;;;;;;15.83;9.03;;;0.30;99.90;;;;;;4935947;28;20256;-64
2023/12/04 02:38:33;;;;;;;16.43;8.63;;;0.20;99.90;;;;;;4948067;28;20225;-64
2023/12/04 02:41:01;;;;;;;20.23;9.17;;;0.00;99.90;;;;;;4909197;28;20220;-64
2023/12/04 02:43:28;;;;;;;14.67;8.00;;;0.20;99.90;;;;;;4941315;28;20329;-64
2023/12/04 02:45:55;;;;;;;15.00;8.07;;;;;;;;;;4944438;28;20214;-64
2023/12/04 02:48:22;;;;;;;18.40;8.80;;;0.20;99.90;;;;;;4945721;28;20209;-64
2023/12/04 02:50:49;;;;;;;15.57;9.30;;;0.30;99.90;;;;;;4929593;28;20200;-64
2023/12/04 02:53:16;;;;;;;20.60;10.13;;;0.30;99.90;;;;;;4939696;28;20202;-64
2023/12/04 02:55:43;;;;;;;15.00;7.93;;;0.40;99.90;;;;;;4910800;28;20303;-64
2023/12/04 02:58:11;;;;;;;17.83;9.07;;;0.30;99.90;;;;;;4942979;28;20228;-64
2023/12/04 03:00:38;;;;;;;16.40;9.33;;;0.30;99.90;;;;;;4932134;28;20210;-64
2023/12/04 03:03:04;;;;;;;14.50;8.83;;;0.20;99.90;;;;;;4943230;28;20238;-64
2023/12/04 03:05:31;;;;;;;16.17;8.50;;;0.30;99.90;;;;;;4950143;28;20206;-64
2023/12/04 03:07:58;;;;;;;18.83;9.57;;;0.30;99.90;;;;;;4933679;28;20212;-64
2023/12/04 03:10:25;;;;;;;17.67;8.83;;;;;;;;;;4932588;28;20203;-65
2023/12/04 03:12:52;;;;;;;16.50;9.10;;;0.30;99.90;;;;;;4923955;28;20664;-65
2023/12/04 03:15:20;;;;;;;16.40;8.67;;;0.30;99.90;;;;;;4934327;28;20201;-64
2023/12/04 03:17:48;;;;;;;15.03;8.80;;;0.20;99.90;;;;;;4935944;28;20231;-64
2023/12/04 03:20:15;;;;;;;15.13;8.07;;;0.30;99.90;;;;;;4944044;28;20776;-64
2023/12/04 03:22:42;;;;;;;18.30;9.43;;;-0.20;99.90;;;;;;4924746;28;20782;-64
2023/12/04 03:25:09;;;;;;;13.13;8.00;;;0.20;99.90;;;;;;4937599;28;20201;-64
2023/12/04 03:27:36;;;;;;;15.53;8.73;;;0.80;99.90;;;;;;4900139;28;20771;-64
2023/12/04 03:30:03;;;;;;;17.47;8.13;;;0.30;99.90;;;;;;4944517;28;20808;-64
2023/12/04 03:32:32;;;;;;;14.77;7.87;;;0.30;99.90;;;;;;4931905;28;20228;-64
2023/12/04 03:34:59;;;;;;;16.13;7.70;;;0.30;99.90;;;;;;4941838;28;20615;-64
2023/12/04 03:37:26;;;;;;;16.90;8.83;;;0.20;99.90;;;;;;4930895;28;20240;-64
2023/12/04 03:39:53;;;;;;;17.50;7.73;;;0.30;99.90;;;;;;4942357;28;20227;-64
2023/12/04 03:42:19;;;;;;;16.60;8.20;;;0.30;99.90;;;;;;4942183;28;20675;-64
2023/12/04 03:44:46;;;;;;;14.90;7.63;;;0.20;99.90;;;;;;4911761;28;20509;-64
2023/12/04 03:47:13;;;;;;;15.63;8.73;;;0.20;99.90;;;;;;4933776;28;20209;-64
2023/12/04 03:49:41;;;;;;;13.67;7.73;;;0.30;99.90;;;;;;4925746;28;20418;-64
2023/12/04 03:52:08;;;;;;;14.93;8.00;;;0.30;99.90;;;;;;4924929;28;20207;-64
2023/12/04 03:54:35;;;;;;;15.87;8.20;;;0.30;99.90;;;;;;4934892;28;20207;-64
2023/12/04 03:57:02;;;;;;;16.03;7.80;;;0.20;99.90;;;;;;4937257;28;20207;-64
2023/12/04 03:59:29;;;;;;;15.40;8.63;;;0.10;99.90;;;;;;4905047;28;20236;-64
2023/12/04 04:01:56;;;;;;;17.53;8.37;;;0.20;99.90;;;;;;4931317;28;20844;-64
2023/12/04 04:04:23;;;;;;;13.07;8.17;;;0.20;99.90;;;;;;4944642;28;20212;-64
2023/12/04 04:06:51;;;;;;;13.27;8.07;;;0.20;99.90;;;;;;4931964;28;20323;-65
2023/12/04 04:09:19;;;;;;;14.10;7.40;;;0.30;99.90;;;;;;4929654;28;20203;-64
2023/12/04 04:11:46;;;;;;;16.03;8.63;;;1.30;99.90;;;;;;4940144;28;20208;-64
2023/12/04 04:14:13;;;;;;;16.23;7.77;;;0.20;99.90;;;;;;4905215;28;20237;-64
2023/12/04 04:16:41;;;;;;;11.03;7.47;;;0.30;99.90;;;;;;4930318;28;20616;-64
2023/12/04 04:19:08;;;;;;;11.13;7.23;;;0.30;99.90;;;;;;4936093;28;20220;-63
2023/12/04 04:21:35;;;;;;;16.07;8.43;;;0.30;99.90;;;;;;4931171;28;20717;-64
2023/12/04 04:24:03;;;;;;;13.70;8.03;;;0.20;99.90;;;;;;4929951;28;20227;-64
2023/12/04 04:26:30;;;;;;;15.63;8.53;;;0.30;99.90;;;;;;4941749;28;20207;-64
2023/12/04 04:28:57;;;;;;;15.37;8.07;;;0.20;99.90;;;;;;4908218;28;20314;-64
2023/12/04 04:31:24;;;;;;;15.10;8.57;;;0.20;99.90;;;;;;4930777;28;20208;-64
2023/12/04 04:33:51;;;;;;;18.63;9.13;;;0.20;99.90;;;;;;4930631;28;20649;-64
2023/12/04 04:36:17;;;;;;;17.80;8.13;;;0.20;99.90;;;;;;4938548;28;20238;-64
2023/12/04 04:38:44;;;;;;;16.67;9.33;;;0.10;99.90;;;;;;4932047;28;20841;-64
2023/12/04 04:41:16;;;;;;;17.37;8.57;;;0.20;99.90;;;;;;4945818;28;20197;-64
2023/12/04 04:43:42;;;;;;;13.43;8.17;;;0.20;99.90;;;;;;4935988;28;20196;-64
2023/12/04 04:46:09;;;;;;;19.40;8.90;;;0.10;99.90;;;;;;4901806;28;20631;-64
2023/12/04 04:48:36;;;;;;;19.50;9.73;;;0.20;99.90;;;;;;4929964;28;20218;-64
2023/12/04 04:51:04;;;;;;;14.07;8.30;;;0.20;99.90;;;;;;4941531;28;20224;-64
2023/12/04 04:53:30;;;;;;;13.30;7.63;;;0.00;99.90;;;;;;4936936;28;20215;-64
2023/12/04 04:55:57;;;;;;;15.00;8.00;;;0.20;99.90;;;;;;4934405;28;20753;-64
2023/12/04 04:58:26;;;;;;;12.73;7.73;;;0.20;99.90;;;;;;4939275;28;20234;-64
2023/12/04 05:00:52;;;;;;;12.73;7.27;;;0.20;99.90;;;;;;4907035;28;20238;-64
2023/12/04 05:03:20;;;;;;;12.57;7.30;;;;;;;;;;4944527;28;20200;-64
2023/12/04 05:05:46;;;;;;;10.93;7.03;;;0.20;99.90;;;;;;4905002;28;20210;-64
2023/12/04 05:08:13;;;;;;;14.53;7.20;;;0.20;99.90;;;;;;4928863;28;20208;-64
2023/12/04 05:10:40;;;;;;;12.30;7.00;;;0.20;99.90;;;;;;4927692;28;20333;-64
2023/12/04 05:13:07;;;;;;;11.83;7.63;;;0.20;99.90;;;;;;4934646;28;20837;-64
2023/12/04 05:15:36;;;;;;;15.83;8.27;;;0.20;99.90;;;;;;4935350;28;20254;-64
2023/12/04 05:18:03;;;;;;;15.07;8.00;;;0.60;99.90;;;;;;4893671;28;20234;-64
2023/12/04 05:20:29;;;;;;;15.07;8.23;;;0.10;99.90;;;;;;4923401;28;21039;-63
2023/12/04 05:22:57;;;;;;;14.17;7.50;;;0.10;99.90;;;;;;4940013;28;20946;-64
2023/12/04 05:25:24;;;;;;;11.90;7.47;;;0.20;99.90;;;;;;4925988;28;20668;-64
2023/12/04 05:27:51;;;;;;;13.77;7.63;;;0.20;99.90;;;;;;4927619;28;20270;-63
2023/12/04 05:30:18;;;;;;;14.57;8.07;;;0.30;99.90;;;;;;4917582;28;20658;-64
2023/12/04 05:32:46;;;;;;;14.37;8.07;;;0.30;99.90;;;;;;4899715;28;20213;-63
2023/12/04 05:35:13;;;;;;;17.27;8.50;;;0.30;99.90;;;;;;4922422;28;20220;-63
2023/12/04 05:37:40;;;;;;;15.90;8.63;;;0.40;99.90;;;;;;4903376;29;20226;-64
2023/12/04 05:40:08;;;;;;;13.23;7.73;;;0.40;99.90;;;;;;4892805;29;20823;-64
2023/12/04 05:42:36;;;;;;;15.93;8.47;;;0.30;99.90;;;;;;4889087;29;20655;-64
2023/12/04 05:45:03;;;;;;;15.70;8.40;;;0.30;99.90;;;;;;4898723;29;20209;-63
2023/12/04 05:47:30;;;;;;;15.13;8.13;;;0.30;99.90;;;;;;4877406;29;20600;-64
2023/12/04 05:49:58;;;;;;;11.23;7.50;;;0.30;99.90;;;;;;4864915;29;20824;-64
2023/12/04 05:52:25;;;;;;;16.43;8.47;;;0.20;99.90;;;;;;4880852;29;20440;-63
2023/12/04 05:54:52;;;;;;;15.17;7.93;;;0.20;99.90;;;;;;4890898;29;20311;-63
2023/12/04 05:57:19;;;;;;;17.27;8.93;;;0.40;99.90;;;;;;4887300;28;20825;-64
2023/12/04 05:59:46;;;;;;;17.83;8.53;;;0.30;99.90;;;;;;4900182;29;20369;-64
2023/12/04 06:02:15;;;;;;;14.03;7.93;;;0.30;99.90;;;;;;4888206;28;20813;-65
2023/12/04 06:04:42;;;;;;;16.63;8.93;;;0.50;99.90;;;;;;4867625;28;21118;-64
2023/12/04 06:07:10;;;;;;;12.53;7.70;;;0.50;99.90;;;;;;4882104;29;20227;-64
2023/12/04 06:09:37;;;;;;;13.93;7.60;;;0.50;99.90;;;;;;4898939;29;20223;-63
2023/12/04 06:12:08;;;;;;;16.10;8.87;;;0.70;99.90;;;;;;4905060;29;20801;-64
2023/12/04 06:14:35;;;;;;;14.77;8.40;;;0.50;99.90;;;;;;4894426;29;20229;-64
2023/12/04 06:17:01;;;;;;;14.17;8.00;;;0.50;99.90;;;;;;4900738;29;20353;-64
2023/12/04 06:19:29;;;;;;;14.10;7.93;;;0.50;99.90;;;;;;4878267;28;20432;-64
2023/12/04 06:21:56;;;;;;;15.63;8.43;;;0.40;99.90;;;;;;4906080;29;20253;-64
2023/12/04 06:24:25;;;;;;;14.43;7.93;;;0.40;99.90;;;;;;4884526;29;20716;-64
2023/12/04 06:26:52;;;;;;;14.93;8.70;;;0.50;99.90;;;;;;4905507;29;20619;-64
2023/12/04 06:29:20;;;;;;;12.57;7.73;;;0.40;99.90;;;;;;4880979;29;20208;-64
2023/12/04 06:31:47;;;;;;;15.97;7.70;;;0.30;99.90;;;;;;4903116;29;20243;-64
2023/12/04 06:34:15;;;;;;;13.10;7.93;;;0.50;99.90;;;;;;4864929;29;21027;-64
2023/12/04 06:36:42;;;;;;;15.63;8.70;;;0.80;99.90;;;;;;4927961;28;20372;-64
2023/12/04 06:39:12;;;;;;;15.93;8.27;;;1.40;99.90;;;;;;4920289;28;20227;-64
2023/12/04 06:41:42;;;;;;;12.23;7.40;;;0.40;99.90;;;;;;4930717;28;20202;-64
2023/12/04 06:44:10;;;;;;;14.70;7.93;;;0.50;99.90;;;;;;4931089;28;20715;-64
2023/12/04 06:46:39;;;;;;;17.03;7.63;;;0.40;99.90;;;;;;4929336;28;20212;-64
2023/12/04 06:49:07;;;;;;;12.57;7.27;;;0.50;99.90;;;;;;4941907;28;20478;-64
2023/12/04 06:51:34;;;;;;;15.73;7.33;;;0.50;99.90;;;;;;4916255;28;21019;-64
2023/12/04 06:54:01;;;;;;;20.13;8.00;;;0.40;99.90;;;;;;4937813;28;21275;-64
2023/12/04 06:56:27;;;;;;;13.97;8.10;;;0.50;99.90;;;;;;4938428;28;20546;-64
2023/12/04 06:58:56;;;;;;;11.83;7.53;;;0.40;99.90;;;;;;4948400;28;20203;-64
2023/12/04 07:01:23;;;;;;;16.13;7.93;;;0.50;99.90;;;;;;4931785;28;20213;-64
2023/12/04 07:03:49;;;;;;;11.87;7.80;;;0.50;99.90;;;;;;4948198;28;20287;-64
2023/12/04 07:06:16;;;;;;;15.43;6.77;;;0.60;99.90;;;;;;4911421;28;20208;-64
2023/12/04 07:08:44;;;;;;;16.77;7.40;;;0.00;99.90;;;;;;4948576;28;21035;-64
2023/12/04 07:11:14;;;;;;;14.13;7.63;;;0.40;99.90;;;;;;4931448;28;20460;-64
2023/12/04 07:13:42;;;;;;;13.60;7.97;;;0.00;99.90;;;;;;4940554;28;20206;-64
2023/12/04 07:16:10;;;;;;;12.23;7.60;;;0.50;99.90;;;;;;4932235;28;20200;-64
2023/12/04 07:18:37;;;;;;;16.37;8.50;;;0.50;99.90;;;;;;4943696;28;20201;-64
2023/12/04 07:21:05;;;;;;;13.60;7.57;;;-0.30;99.90;;;;;;4945367;28;20257;-64
2023/12/04 07:23:32;;;;;;;13.07;7.30;;;0.50;99.90;;;;;;4911497;28;20224;-64
2023/12/04 07:25:59;;;;;;;16.43;7.20;;;0.50;99.90;;;;;;4937911;28;20243;-64
2023/12/04 07:28:25;;;;;;;11.40;6.33;;;0.60;99.90;;;;;;4938148;28;20212;-64
2023/12/04 07:30:52;;;;;;;11.73;6.63;;;0.50;99.90;;;;;;4946201;28;20215;-64
2023/12/04 07:33:21;;;;;;;13.27;7.27;;;0.60;99.90;;;;;;4933270;28;20339;-64
2023/12/04 07:35:47;;;;;;;13.83;7.80;;;0.50;99.90;;;;;;4947288;28;20233;-64
2023/12/04 07:38:14;;;;;;;13.97;7.20;;;0.50;99.90;;;;;;4895316;28;20773;-64
2023/12/04 07:40:41;;;;;;;11.60;6.53;;;0.60;99.90;;;;;;4940791;28;20378;-64
2023/12/04 07:43:08;;;;;;;13.23;7.00;;;0.50;99.90;;;;;;4937158;28;20666;-64
2023/12/04 07:45:36;;;;;;;12.17;7.03;;;0.50;99.90;;;;;;4948400;28;20225;-64
2023/12/04 07:48:04;;;;;;;14.90;7.00;;;0.50;99.90;;;;;;4935101;28;20278;-64
2023/12/04 07:50:32;;;;;;;14.87;8.03;;;0.50;99.90;;;;;;4948514;28;20279;-64
2023/12/04 07:52:59;;;;;;;15.87;7.03;;;0.50;99.90;;;;;;4911626;28;20213;-64
2023/12/04 07:55:26;;;;;;;12.87;7.07;;;0.50;99.90;;;;;;4935534;28;21270;-64
2023/12/04 07:57:53;;;;;;;9.07;6.37;;;0.60;99.90;;;;;;4947383;28;20345;-64
2023/12/04 08:00:19;;;;;;;12.87;6.83;;;1.20;99.90;;;;;;4931057;28;20229;-64
2023/12/04 08:02:46;;;;;;;11.80;6.80;;;0.60;99.90;;;;;;4938146;28;20593;-64
2023/12/04 08:05:13;;;;;;;11.90;7.20;;;0.60;99.90;;;;;;4938724;28;20429;-64
2023/12/04 08:07:42;;;;;;;12.03;7.13;;;0.60;99.90;;;;;;4909970;28;20295;-64
2023/12/04 08:10:09;;;;;;;11.27;6.67;;;0.60;99.90;;;;;;4919837;28;20200;-65
2023/12/04 08:12:36;;;;;;;9.50;6.20;;;0.60;99.90;;;;;;4942757;28;20678;-65
2023/12/04 08:15:04;;;;;;;12.83;7.80;;;0.60;99.90;;;;;;4932410;28;20207;-64
2023/12/04 08:17:30;;;;;;;10.50;6.50;;;0.60;99.90;;;;;;4933466;28;20215;-63
2023/12/04 08:19:58;;;;;;;13.87;7.30;;;0.70;99.90;;;;;;4942237;28;20235;-64
2023/12/04 08:22:25;;;;;;;9.67;6.47;;;0.60;99.90;;;;;;4942778;28;21632;-64
2023/12/04 08:24:53;;;;;;;16.00;7.20;;;0.70;99.90;;;;;;4915400;28;20212;-64
2023/12/04 08:27:20;;;;;;;11.67;6.93;;;0.60;99.90;;;;;;4927677;28;20201;-64
2023/12/04 08:29:47;;;;;;;13.53;7.53;;;0.90;99.90;;;;;;4933294;28;20210;-64
2023/12/04 08:32:13;;;;;;;10.77;6.87;;;0.60;99.90;;;;;;4926692;28;20885;-64
2023/12/04 08:34:40;;;;;;;13.77;6.83;;;0.60;99.90;;;;;;4942471;28;20198;-64
2023/12/04 08:37:07;;;;;;;13.30;6.60;;;0.20;99.90;;;;;;4942012;28;20224;-64
2023/12/04 08:39:34;;;;;;;11.63;6.87;;;0.70;99.90;;;;;;4909252;28;20699;-64
2023/12/04 08:42:03;;;;;;;13.90;7.00;;;0.70;99.90;;;;;;4928905;28;20688;-64
2023/12/04 08:44:30;;;;;;;13.20;7.63;;;0.70;99.90;;;;;;4943422;28;20232;-64
2023/12/04 08:46:57;;;;;;;11.80;7.53;;;0.70;99.90;;;;;;4930964;28;20422;-64
2023/12/04 08:49:24;;;;;;;16.27;7.37;;;1.00;99.90;;;;;;4927296;28;20447;-64
2023/12/04 08:51:52;;;;;;;12.53;6.90;;;0.70;99.90;;;;;;4940397;28;20254;-64
2023/12/04 08:54:19;;;;;;;10.50;6.83;;;0.70;99.90;;;;;;4904299;28;27296;-64
2023/12/04 08:56:46;;;;;;;11.63;6.87;;;0.70;99.90;;;;;;4931489;28;20234;-64
2023/12/04 08:59:14;;;;;;;13.03;6.23;;;0.70;99.90;;;;;;4939984;28;20205;-64
2023/12/04 09:01:41;;;;;;;12.67;6.47;;;0.70;99.90;;;;;;4934774;28;20208;-64
2023/12/04 09:04:09;;;;;;;11.40;7.10;;;1.50;99.90;;;;;;4924629;28;20668;-64
2023/12/04 09:06:36;;;;;;;12.50;7.20;;;0.80;99.90;;;;;;4936734;28;20202;-64
2023/12/04 09:09:03;;;;;;;12.77;7.40;;;2.20;99.90;;;;;;4912360;28;20204;-64
2023/12/04 09:11:30;;;;;;;12.30;6.70;;;1.30;99.90;;;;;;4932094;28;20527;-64
2023/12/04 09:13:57;;;;;;;13.57;7.70;;;0.80;99.90;;;;;;4933485;28;20210;-64
2023/12/04 09:16:25;;;;;;;14.77;6.70;;;0.70;99.90;;;;;;4932474;28;20967;-64
2023/12/04 09:18:53;;;;;;;11.53;6.97;;;1.10;99.90;;;;;;4943908;28;20226;-64
2023/12/04 09:21:20;;;;;;;10.77;6.40;;;0.80;99.90;;;;;;4929503;28;20980;-64
2023/12/04 09:23:49;;;;;;;14.17;7.13;;;0.80;99.90;;;;;;4937641;28;20205;-64
2023/12/04 09:26:17;;;;;;;10.37;6.07;;;-0.20;99.90;;;;;;4905021;28;20204;-64
2023/12/04 09:28:43;;;;;;;11.93;7.10;;;0.80;99.90;;;;;;4930085;28;20431;-64
2023/12/04 09:31:10;;;;;;;14.73;6.27;;;0.80;99.90;;;;;;4940418;28;20213;-64
2023/12/04 09:33:39;;;;;;;11.03;6.50;;;0.80;99.90;;;;;;4934450;28;20221;-64
2023/12/04 09:36:06;;;;;;;14.07;7.20;;;0.80;99.90;;;;;;4932513;28;20726;-64
2023/12/04 09:38:33;;;;;;;12.40;6.67;;;0.80;99.90;;;;;;4943513;28;20197;-64
2023/12/04 09:41:01;;;;;;;12.17;7.30;;;0.90;99.90;;;;;;4909811;28;20643;-64
2023/12/04 09:43:31;;;;;;;13.37;6.80;;;1.10;99.90;;;;;;4936937;28;20475;-64
2023/12/04 09:45:58;;;;;;;11.77;7.30;;;0.90;99.90;;;;;;4947306;28;20213;-64
2023/12/04 09:48:27;;;;;;;11.60;6.27;;;0.90;99.90;;;;;;4932958;28;20214;-64
2023/12/04 09:50:56;;;;;;;10.37;6.27;;;0.90;99.90;;;;;;4935423;28;21307;-64
2023/12/04 09:53:23;;;;;;;10.87;6.30;;;0.80;99.90;;;;;;4946034;28;20203;-64
2023/12/04 09:55:51;;;;;;;12.27;5.77;;;0.90;99.90;;;;;;4911357;28;20200;-64
2023/12/04 09:58:20;;;;;;;12.90;7.03;;;0.90;99.90;;;;;;4934150;28;21009;-64
2023/12/04 10:00:47;;;;;;;10.23;6.30;;;0.90;99.90;;;;;;4938234;28;20243;-64
2023/12/04 10:03:15;;;;;;;12.37;6.53;;;0.90;99.90;;;;;;4926891;28;20384;-64
2023/12/04 10:05:45;;;;;;;14.40;7.37;;;0.90;99.90;;;;;;4928759;28;20283;-63
2023/12/04 10:08:13;;;;;;;14.13;7.00;;;0.10;99.90;;;;;;4943953;28;20915;-64
2023/12/04 10:10:40;;;;;;;12.90;6.73;;;1.00;99.90;;;;;;4946952;28;20280;-64
2023/12/04 10:13:07;;;;;;;13.20;6.50;;;1.00;99.90;;;;;;4907136;28;20218;-64
2023/12/04 10:15:34;;;;;;;14.90;6.90;;;1.00;99.90;;;;;;4934625;28;20197;-64
2023/12/04 10:18:01;;;;;;;12.80;6.67;;;0.90;99.90;;;;;;4943634;28;20210;-64
2023/12/04 10:20:28;;;;;;;12.63;7.17;;;1.00;99.90;;;;;;4928439;28;20259;-64
2023/12/04 10:22:56;;;;;;;9.90;6.37;;;1.00;99.90;;;;;;4932125;28;20237;-64
2023/12/04 10:25:27;;;;;;;9.60;5.63;;;1.00;99.90;;;;;;4942487;28;20762;-63
2023/12/04 10:27:55;;;;;;;13.03;6.43;;;1.00;99.90;;;;;;4903851;28;20429;-64
2023/12/04 10:30:26;;;;;;;9.13;6.23;;;1.00;99.90;;;;;;4934111;28;20357;-64
2023/12/04 10:32:55;;;;;;;7.70;5.73;;;1.00;99.90;;;;;;4941304;28;20522;-64
2023/12/04 10:35:23;;;;;;;13.40;6.07;;;1.00;99.90;;;;;;4930826;28;20203;-64
2023/12/04 10:37:54;;;;;;;9.17;5.67;;;1.00;99.90;;;;;;4934384;28;20322;-64
2023/12/04 10:40:25;;;;;;;11.83;6.07;;;1.00;99.90;;;;;;4941926;28;20219;-63
2023/12/04 10:43:10;;;;;;;11.00;6.80;;;1.10;99.90;;;;;;4910292;28;20210;-64
2023/12/04 10:45:38;;;;;;;10.73;6.70;;;1.10;99.90;;;;;;4934871;28;20226;-64
2023/12/04 10:48:05;;;;;;;10.30;5.80;;;1.10;99.90;;;;;;4944631;28;20622;-64
2023/12/04 10:50:33;;;;;;;12.13;6.77;;;1.10;99.90;;;;;;4932960;28;20659;-63
2023/12/04 10:53:02;;;;;;;10.97;6.00;;;1.10;99.90;;;;;;4932694;28;20304;-64
2023/12/04 10:55:30;;;;;;;10.90;5.93;;;1.10;99.90;;;;;;4942529;28;20703;-64
2023/12/04 10:57:57;;;;;;;10.53;5.87;;;1.10;99.90;;;;;;4909549;28;20218;-63
2023/12/04 11:00:25;;;;;;;8.80;5.83;;;0.80;99.90;;;;;;4944575;28;20239;-63
2023/12/04 11:02:55;;;;;;;9.60;6.37;;;1.10;99.90;;;;;;4934688;28;20630;-64
2023/12/04 11:05:25;;;;;;;12.10;5.77;;;1.10;99.90;;;;;;4946313;28;20205;-64
2023/12/04 11:07:55;;;;;;;11.17;5.93;;;1.50;99.90;;;;;;4928520;28;20214;-64
2023/12/04 11:10:24;;;;;;;11.40;6.07;;;1.20;99.90;;;;;;4949004;28;20220;-64
2023/12/04 11:12:58;;;;;;;8.83;4.97;;;1.10;99.90;;;;;;4944136;28;20202;-64
2023/12/04 11:15:26;;;;;;;8.83;5.33;;;1.20;99.90;;;;;;4909443;28;20213;-63
2023/12/04 11:17:59;;;;;;;12.00;6.40;;;1.20;99.90;;;;;;4934201;28;20206;-63
2023/12/04 11:20:30;;;;;;;10.13;5.50;;;0.80;99.90;;;;;;4928854;28;20242;-63
2023/12/04 11:22:58;;;;;;;10.23;5.93;;;1.10;99.90;;;;;;4928405;28;20580;-64
2023/12/04 11:25:26;;;;;;;9.37;5.63;;;1.20;99.90;;;;;;4919288;28;20205;-64
2023/12/04 11:27:56;;;;;;;10.70;6.57;;;1.20;99.90;;;;;;4943310;28;20997;-64
2023/12/04 11:30:23;;;;;;;11.57;6.83;;;1.20;99.90;;;;;;4907784;28;20221;-64
2023/12/04 11:32:51;;;;;;;9.27;5.23;;;1.20;99.90;;;;;;4931280;28;20304;-64
2023/12/04 11:35:19;;;;;;;10.73;6.17;;;1.30;99.90;;;;;;4943037;28;20217;-64
2023/12/04 11:37:48;;;;;;;9.50;5.50;;;1.30;99.90;;;;;;4934413;28;20211;-64
2023/12/04 11:40:17;;;;;;;9.10;5.90;;;1.30;99.90;;;;;;4934088;28;20280;-63
2023/12/04 11:42:43;;;;;;;8.67;5.80;;;1.20;99.90;;;;;;4934584;28;20591;-64
2023/12/04 11:45:20;;;;;;;10.77;5.53;;;1.30;99.90;;;;;;4909154;28;20207;-64
2023/12/04 11:47:51;;;;;;;11.43;5.77;;;1.30;99.90;;;;;;4939270;28;20683;-64
2023/12/04 11:50:20;;;;;;;8.77;5.63;;;1.30;99.90;;;;;;4934808;28;20212;-64
2023/12/04 11:52:47;;;;;;;13.20;5.27;;;1.40;99.90;;;;;;4930725;28;20207;-64
2023/12/04 11:55:17;;;;;;;8.93;5.57;;;1.30;99.90;;;;;;4924331;28;20383;-64
2023/12/04 11:57:45;;;;;;;12.23;5.97;;;1.30;99.90;;;;;;4930598;28;20402;-64
2023/12/04 12:00:22;;;;;;;9.20;5.23;;;1.40;99.90;;;;;;4943106;28;20205;-64
2023/12/04 12:03:06;;;;;;;13.17;6.50;;;1.40;99.90;;;;;;4911484;28;20715;-64
2023/12/04 12:05:34;;;;;;;7.87;5.63;;;1.40;99.90;;;;;;4925919;28;20298;-64
2023/12/04 12:08:03;;;;;;;11.77;6.33;;;1.40;99.90;;;;;;4934487;28;20678;-63
2023/12/04 12:10:31;;;;;;;8.97;5.73;;;1.40;99.90;;;;;;4927342;28;20212;-64
2023/12/04 12:12:58;;;;;;;11.03;5.97;;;2.80;99.90;;;;;;4934815;28;20238;-64
2023/12/04 12:15:27;;;;;;;9.50;5.40;;;1.40;99.90;;;;;;4939565;28;20665;-64
2023/12/04 12:17:54;;;;;;;10.00;5.50;;;1.40;99.90;;;;;;4907510;28;20686;-64
2023/12/04 12:20:21;;;;;;;8.80;5.37;;;1.70;99.90;;;;;;4937291;28;20235;-64
2023/12/04 12:22:50;;;;;;;10.40;5.93;;;2.50;99.90;;;;;;4933082;28;20300;-64
2023/12/04 12:25:18;;;;;;;13.93;5.97;;;1.40;99.90;;;;;;4931663;28;20235;-64
2023/12/04 12:27:45;;;;;;;9.70;5.70;;;1.50;99.90;;;;;;4928264;28;20731;-64
2023/12/04 12:30:13;;;;;;;9.70;5.87;;;1.40;99.90;;;;;;4941292;28;20199;-64
2023/12/04 12:32:41;;;;;;;11.00;6.13;;;1.50;99.90;;;;;;4905113;28;20219;-64
2023/12/04 12:35:09;;;;;;;9.83;5.53;;;1.50;99.90;;;;;;4944434;28;20214;-64
2023/12/04 12:37:36;;;;;;;11.23;5.20;;;1.50;99.90;;;;;;4931615;28;20234;-64
2023/12/04 12:40:05;;;;;;;8.97;5.67;;;1.50;99.90;;;;;;4928366;28;20583;-64
2023/12/04 12:42:33;;;;;;;10.40;6.47;;;1.50;99.90;;;;;;4937995;28;20388;-64
2023/12/04 12:45:03;;;;;;;8.53;5.67;;;1.50;99.90;;;;;;4941501;28;20211;-64
2023/12/04 12:47:30;;;;;;;8.30;5.37;;;1.70;99.90;;;;;;4883323;28;20286;-64
2023/12/04 12:50:01;;;;;;;10.60;6.13;;;1.40;99.90;;;;;;4936257;28;20716;-64